Time;durP1;ratioP1;P1;durP2;ratioP2;P2;SDS_P1;SDS_P2;PMS_P1;PMS_P2;Temp;Humidity;BMP_temperature;BMP_pressure;BME280_temperature;BME280_humidity;BME280_pressure;Samples;Min_cycle;Max_cycle;Signal;HPM_P1;HPM_P2
2022/05/19 00:02:13;;;;;;;49.38;25.73;;;21.40;65.40;;;;;;9189785;19;20022;-77
2022/05/19 00:05:18;;;;;;;51.47;25.98;;;21.30;65.40;;;;;;9187447;19;20045;-74
2022/05/19 00:08:24;;;;;;;44.53;25.95;;;21.30;65.50;;;;;;9194254;19;20487;-75
2022/05/19 00:11:32;;;;;;;46.72;25.10;;;21.20;65.60;;;;;;9190623;19;20360;-76
2022/05/19 00:14:39;;;;;;;44.60;26.48;;;21.20;65.80;;;;;;9188418;19;20010;-76
2022/05/19 00:17:44;;;;;;;48.05;26.65;;;21.10;65.90;;;;;;9185985;19;20116;-76
2022/05/19 00:20:50;;;;;;;50.78;26.40;;;21.10;65.90;;;;;;9186372;19;20817;-75
2022/05/19 00:23:55;;;;;;;39.53;25.35;;;21.00;66.00;;;;;;9186727;19;20018;-76
2022/05/19 00:27:00;;;;;;;46.28;27.83;;;21.00;66.10;;;;;;9186746;19;20020;-74
2022/05/19 00:30:09;;;;;;;43.20;25.67;;;20.90;66.10;;;;;;9185778;19;20025;-76
2022/05/19 00:33:14;;;;;;;44.20;27.02;;;20.90;66.40;;;;;;9186144;19;20015;-77
2022/05/19 00:36:21;;;;;;;49.45;28.02;;;20.80;66.30;;;;;;9185344;19;20010;-76
2022/05/19 00:39:27;;;;;;;52.15;27.35;;;20.80;66.40;;;;;;9185385;19;20014;-77
2022/05/19 00:42:47;;;;;;;51.22;28.02;;;20.70;66.50;;;;;;9181013;19;20009;-76
2022/05/19 00:45:59;;;;;;;48.40;28.17;;;20.70;66.60;;;;;;9184612;19;20006;-77
2022/05/19 00:49:09;;;;;;;47.97;29.23;;;20.70;67.10;;;;;;9184354;19;20028;-73
2022/05/19 00:52:20;;;;;;;50.92;29.52;;;20.60;66.80;;;;;;9183599;19;20011;-75
2022/05/19 00:55:29;;;;;;;50.08;28.20;;;20.60;67.00;;;;;;9183972;19;20022;-76
2022/05/19 00:58:39;;;;;;;49.97;28.20;;;20.60;67.10;;;;;;9183657;19;20115;-75
2022/05/19 01:01:47;;;;;;;47.58;27.65;;;20.50;67.20;;;;;;9181394;19;20026;-76
2022/05/19 01:04:56;;;;;;;49.00;28.05;;;20.50;67.20;;;;;;9182844;19;20018;-76
2022/05/19 01:08:08;;;;;;;53.78;29.88;;;20.50;67.40;;;;;;9183490;19;20014;-76
2022/05/19 01:11:18;;;;;;;55.40;30.23;;;20.50;67.50;;;;;;9184356;19;20114;-78
2022/05/19 01:14:28;;;;;;;48.22;29.55;;;20.40;67.50;;;;;;9184915;19;20049;-78
2022/05/19 01:17:40;;;;;;;51.70;30.60;;;20.40;67.50;;;;;;9180442;19;20018;-75
2022/05/19 01:21:02;;;;;;;53.30;31.27;;;20.30;67.80;;;;;;9181295;19;20018;-76
2022/05/19 01:24:16;;;;;;;51.63;31.30;;;20.30;67.70;;;;;;9180296;19;20014;-76
2022/05/19 01:27:26;;;;;;;55.72;29.83;;;20.30;68.00;;;;;;9183398;19;20018;-77
2022/05/19 01:30:37;;;;;;;56.38;30.80;;;20.20;67.90;;;;;;9182175;19;20014;-78
2022/05/19 01:33:46;;;;;;;50.85;30.73;;;20.20;67.90;;;;;;9184114;19;20044;-74
2022/05/19 01:36:52;;;;;;;49.10;31.75;;;20.20;68.10;;;;;;9181646;19;20376;-76
2022/05/19 01:40:08;;;;;;;48.70;29.67;;;20.10;68.10;;;;;;9183556;19;20014;-77
2022/05/19 01:43:25;;;;;;;49.25;29.27;;;20.10;68.20;;;;;;9178859;19;20019;-76
2022/05/19 01:46:34;;;;;;;46.60;29.95;;;20.10;68.50;;;;;;9182832;19;20010;-74
2022/05/19 01:49:51;;;;;;;54.15;30.98;;;20.10;68.40;;;;;;9180056;19;20011;-75
2022/05/19 01:53:03;;;;;;;52.28;32.05;;;20.10;68.50;;;;;;9181307;19;20539;-76
2022/05/19 01:56:16;;;;;;;54.10;31.60;;;20.00;68.50;;;;;;9181179;19;20020;-75
2022/05/19 01:59:29;;;;;;;53.22;31.25;;;20.00;68.70;;;;;;9182490;19;20014;-75
2022/05/19 02:02:41;;;;;;;50.25;29.60;;;20.00;68.80;;;;;;9180322;19;20022;-75
2022/05/19 02:05:51;;;;;;;56.65;31.60;;;20.00;68.80;;;;;;9178767;19;20025;-77
2022/05/19 02:09:00;;;;;;;60.42;30.85;;;19.90;68.70;;;;;;9180650;19;20049;-77
2022/05/19 02:12:08;;;;;;;44.80;29.92;;;19.90;68.80;;;;;;9181897;19;20011;-76
2022/05/19 02:15:17;;;;;;;53.05;31.73;;;19.90;68.90;;;;;;9180545;19;20014;-76
2022/05/19 02:18:27;;;;;;;51.15;30.35;;;19.90;69.10;;;;;;9178768;19;20745;-76
2022/05/19 02:21:32;;;;;;;48.78;29.20;;;19.90;69.10;;;;;;9181545;19;20015;-76
2022/05/19 02:24:41;;;;;;;60.75;30.77;;;19.90;69.10;;;;;;9180134;19;20019;-76
2022/05/19 02:27:53;;;;;;;55.03;30.17;;;19.90;69.20;;;;;;9179905;19;20464;-76
2022/05/19 02:31:02;;;;;;;51.85;30.52;;;19.80;69.30;;;;;;9180681;19;20086;-76
2022/05/19 02:34:07;;;;;;;53.80;30.65;;;19.80;69.30;;;;;;9177380;19;20007;-76
2022/05/19 02:37:12;;;;;;;48.03;30.25;;;19.80;69.30;;;;;;9177018;19;20484;-75
2022/05/19 02:40:20;;;;;;;52.83;31.83;;;19.80;69.40;;;;;;9181313;19;20017;-76
2022/05/19 02:43:25;;;;;;;53.10;31.98;;;19.70;69.40;;;;;;9175278;19;20514;-76
2022/05/19 02:46:32;;;;;;;51.67;31.02;;;19.70;69.50;;;;;;9180355;19;20014;-77
2022/05/19 02:49:37;;;;;;;46.03;28.90;;;19.70;69.60;;;;;;9179943;19;20684;-75
2022/05/19 02:52:42;;;;;;;48.65;31.88;;;19.70;69.60;;;;;;9180587;19;20019;-74
2022/05/19 02:55:47;;;;;;;47.35;30.77;;;19.70;69.70;;;;;;9180140;19;20019;-74
2022/05/19 02:58:55;;;;;;;51.55;32.67;;;19.60;69.80;;;;;;9177947;19;20075;-76
2022/05/19 03:02:03;;;;;;;49.08;31.30;;;19.60;69.80;;;;;;9179220;19;20026;-75
2022/05/19 03:05:10;;;;;;;50.38;30.80;;;19.60;70.00;;;;;;9176701;19;20010;-77
2022/05/19 03:08:15;;;;;;;49.90;29.77;;;19.60;70.00;;;;;;9178625;19;20019;-76
2022/05/19 03:11:20;;;;;;;50.17;31.00;;;19.60;70.00;;;;;;9178986;19;20149;-75
2022/05/19 03:14:25;;;;;;;49.15;31.17;;;19.60;70.20;;;;;;9179423;19;20487;-74
2022/05/19 03:17:32;;;;;;;52.97;30.65;;;19.60;70.20;;;;;;9176527;19;20023;-76
2022/05/19 03:20:38;;;;;;;50.38;30.05;;;19.60;70.30;;;;;;9176719;19;20089;-76
2022/05/19 03:23:43;;;;;;;52.58;32.75;;;19.60;70.30;;;;;;9178986;19;20010;-75
2022/05/19 03:26:48;;;;;;;44.65;30.02;;;19.50;70.30;;;;;;9176526;19;20032;-76
2022/05/19 03:29:53;;;;;;;54.70;31.27;;;19.50;70.40;;;;;;9179895;19;20015;-76
2022/05/19 03:33:02;;;;;;;48.70;29.98;;;19.50;70.50;;;;;;9177033;19;20015;-75
2022/05/19 03:36:07;;;;;;;52.15;31.58;;;19.50;70.70;;;;;;9176381;19;20018;-75
2022/05/19 03:39:13;;;;;;;45.13;27.73;;;19.50;70.70;;;;;;9176142;19;20018;-75
2022/05/19 03:42:18;;;;;;;48.75;29.90;;;19.50;70.70;;;;;;9174095;19;20018;-73
2022/05/19 03:45:23;;;;;;;51.90;29.52;;;19.40;70.70;;;;;;9176352;19;20018;-75
2022/05/19 03:48:34;;;;;;;43.00;28.92;;;19.40;70.80;;;;;;9188697;19;20018;-75
2022/05/19 03:51:39;;;;;;;49.53;29.40;;;19.40;71.10;;;;;;9185888;19;20011;-76
2022/05/19 03:54:45;;;;;;;39.35;26.52;;;19.40;71.00;;;;;;9184881;19;20454;-76
2022/05/19 03:57:50;;;;;;;42.60;27.15;;;19.40;71.10;;;;;;9186038;19;20029;-75
2022/05/19 04:00:55;;;;;;;40.80;27.45;;;19.40;71.10;;;;;;9185481;19;20105;-75
2022/05/19 04:04:03;;;;;;;41.05;25.88;;;19.40;71.10;;;;;;9184373;19;20018;-76
2022/05/19 04:07:11;;;;;;;37.47;24.90;;;19.40;71.20;;;;;;9184400;19;20338;-76
2022/05/19 04:10:17;;;;;;;36.83;26.23;;;19.40;71.20;;;;;;9184766;19;20014;-75
2022/05/19 04:13:22;;;;;;;43.22;25.75;;;19.40;71.80;;;;;;9185336;19;20011;-76
2022/05/19 04:16:27;;;;;;;40.13;25.15;;;19.40;71.20;;;;;;9184198;19;20034;-75
2022/05/19 04:19:35;;;;;;;37.35;23.05;;;19.40;71.30;;;;;;9181963;19;20364;-73
2022/05/19 04:22:41;;;;;;;44.30;24.45;;;19.40;71.40;;;;;;9184902;19;20053;-74
2022/05/19 04:25:46;;;;;;;30.77;22.23;;;19.40;71.30;;;;;;9184886;19;20352;-75
2022/05/19 04:28:51;;;;;;;34.30;20.88;;;19.40;71.30;;;;;;9184622;19;20007;-74
2022/05/19 04:31:56;;;;;;;32.22;20.80;;;19.40;71.40;;;;;;9185868;19;20097;-74
2022/05/19 04:35:04;;;;;;;37.97;18.95;;;19.40;71.40;;;;;;9185304;19;20021;-75
2022/05/19 04:38:10;;;;;;;29.95;18.40;;;19.40;71.50;;;;;;9183819;19;20019;-75
2022/05/19 04:41:15;;;;;;;29.65;19.27;;;19.40;71.50;;;;;;9185333;19;20018;-74
2022/05/19 04:44:20;;;;;;;31.40;17.70;;;19.30;71.50;;;;;;9181075;19;20021;-75
2022/05/19 04:47:26;;;;;;;27.40;17.30;;;19.40;71.60;;;;;;9182720;19;20015;-75
2022/05/19 04:50:34;;;;;;;27.77;16.02;;;19.40;71.60;;;;;;9182855;19;20019;-75
2022/05/19 04:53:39;;;;;;;18.80;13.65;;;19.40;71.70;;;;;;9183872;19;20021;-74
2022/05/19 04:56:44;;;;;;;18.98;12.70;;;19.40;71.60;;;;;;9184502;19;20021;-74
2022/05/19 04:59:49;;;;;;;19.48;11.93;;;19.40;71.60;;;;;;9179842;19;20492;-74
2022/05/19 05:02:54;;;;;;;18.60;12.27;;;19.50;71.60;;;;;;9182451;19;20070;-75
2022/05/19 05:06:02;;;;;;;15.75;10.88;;;19.50;71.50;;;;;;9182103;19;20021;-74
2022/05/19 05:09:07;;;;;;;20.60;11.57;;;19.50;71.60;;;;;;9184612;19;20011;-76
2022/05/19 05:12:13;;;;;;;17.98;10.82;;;19.60;71.50;;;;;;9182247;19;20018;-76
2022/05/19 05:15:18;;;;;;;20.73;11.70;;;19.60;71.50;;;;;;9182897;19;20011;-75
2022/05/19 05:18:23;;;;;;;17.95;11.73;;;19.70;71.50;;;;;;9183341;19;20006;-75
2022/05/19 05:21:31;;;;;;;18.02;11.13;;;19.70;71.50;;;;;;9181484;19;20034;-75
2022/05/19 05:24:36;;;;;;;20.85;11.20;;;19.80;71.60;;;;;;9184017;19;20021;-73
2022/05/19 05:27:43;;;;;;;19.05;11.40;;;19.80;71.50;;;;;;9183766;19;20022;-75
2022/05/19 05:30:49;;;;;;;17.08;11.38;;;19.80;71.50;;;;;;9181791;19;20013;-75
2022/05/19 05:33:57;;;;;;;18.27;11.52;;;19.90;71.40;;;;;;9183018;19;20015;-73
2022/05/19 05:37:07;;;;;;;15.48;11.02;;;20.00;71.50;;;;;;9181290;19;20030;-75
2022/05/19 05:40:14;;;;;;;19.25;11.15;;;20.00;71.40;;;;;;9179394;19;20105;-74
2022/05/19 05:43:21;;;;;;;15.73;9.73;;;20.10;71.50;;;;;;9178029;19;20026;-74
2022/05/19 05:46:27;;;;;;;16.17;9.80;;;20.10;71.40;;;;;;9180788;19;20379;-73
2022/05/19 05:49:32;;;;;;;21.20;9.65;;;20.20;71.40;;;;;;9183166;19;20025;-73
2022/05/19 05:52:39;;;;;;;14.38;9.40;;;20.30;71.50;;;;;;9182322;19;20508;-74
2022/05/19 05:55:44;;;;;;;14.02;8.65;;;20.40;71.50;;;;;;9181065;19;20023;-73
2022/05/19 05:58:50;;;;;;;17.17;9.07;;;20.50;71.30;;;;;;9181935;19;20010;-75
2022/05/19 06:01:57;;;;;;;19.23;9.65;;;20.60;71.20;;;;;;9180411;19;20018;-74
2022/05/19 06:05:02;;;;;;;16.58;9.27;;;20.70;71.10;;;;;;9179866;19;20090;-74
2022/05/19 06:08:10;;;;;;;13.20;7.90;;;20.80;71.20;;;;;;9182571;19;20011;-71
2022/05/19 06:11:16;;;;;;;13.82;8.85;;;20.90;71.20;;;;;;9179918;19;20372;-72
2022/05/19 06:14:21;;;;;;;15.85;7.88;;;21.10;71.20;;;;;;9173854;19;20022;-68
2022/05/19 06:17:26;;;;;;;19.77;9.45;;;21.20;71.00;;;;;;9175521;19;20014;-68
2022/05/19 06:20:32;;;;;;;10.85;6.60;;;21.40;71.00;;;;;;9171958;19;20018;-68
2022/05/19 06:23:40;;;;;;;7.70;5.60;;;21.60;70.90;;;;;;9175678;19;20029;-67
2022/05/19 06:26:45;;;;;;;12.32;5.70;;;21.80;70.50;;;;;;9176999;19;20725;-68
2022/05/19 06:29:50;;;;;;;9.90;5.97;;;22.00;70.30;;;;;;9177659;19;20014;-68
2022/05/19 06:32:55;;;;;;;9.60;5.05;;;22.20;70.00;;;;;;9181453;19;20901;-68
2022/05/19 06:36:00;;;;;;;9.93;5.10;;;22.40;69.70;;;;;;9181580;19;20551;-69
2022/05/19 06:39:08;;;;;;;9.13;4.68;;;22.60;69.40;;;;;;9181130;19;20593;-69
2022/05/19 06:42:14;;;;;;;7.72;4.18;;;22.80;69.10;;;;;;9175025;19;20360;-69
2022/05/19 06:45:22;;;;;;;6.55;3.85;;;23.00;68.80;;;;;;9178878;19;20014;-69
2022/05/19 06:48:28;;;;;;;6.55;3.53;;;23.10;68.50;;;;;;9179695;19;20018;-69
2022/05/19 06:51:34;;;;;;;5.30;3.30;;;23.30;68.20;;;;;;9179541;19;20019;-69
2022/05/19 06:54:42;;;;;;;9.43;4.13;;;23.50;67.90;;;;;;9177028;19;20388;-70
2022/05/19 06:57:47;;;;;;;9.85;3.97;;;23.60;67.60;;;;;;9175902;19;20010;-71
2022/05/19 07:00:53;;;;;;;6.18;2.88;;;23.80;67.30;;;;;;9177464;19;20467;-71
2022/05/19 07:03:58;;;;;;;7.47;3.22;;;23.90;67.00;;;;;;9176986;19;20464;-70
2022/05/19 07:07:04;;;;;;;9.18;3.70;;;24.00;66.70;;;;;;9178117;19;20336;-70
2022/05/19 07:10:13;;;;;;;8.43;3.55;;;24.20;66.60;;;;;;9177552;19;20014;-71
2022/05/19 07:13:18;;;;;;;4.50;3.10;;;24.30;66.20;;;;;;9177720;19;20030;-71
2022/05/19 07:16:24;;;;;;;7.93;2.97;;;24.40;66.00;;;;;;9180278;19;20028;-73
2022/05/19 07:23:09;;;;;;;5.90;3.80;;;24.60;65.20;;;;;;9187144;19;20006;-72
2022/05/19 07:26:20;;;;;;;4.32;3.25;;;24.70;65.30;;;;;;9188920;19;20014;-72
2022/05/19 07:29:26;;;;;;;9.98;4.07;;;24.70;65.00;;;;;;9188605;19;20024;-73
2022/05/19 07:32:32;;;;;;;4.60;3.55;;;24.80;64.80;;;;;;9185352;19;20029;-74
2022/05/19 07:35:39;;;;;;;8.02;3.72;;;24.80;64.60;;;;;;9187789;19;20125;-72
2022/05/19 07:38:44;;;;;;;5.53;3.55;;;24.80;64.40;;;;;;9190995;19;20045;-71
2022/05/19 07:41:55;;;;;;;5.55;3.17;;;24.80;64.30;;;;;;9187706;19;20026;-74
2022/05/19 07:45:01;;;;;;;10.98;3.45;;;24.80;64.20;;;;;;9188731;19;20026;-72
2022/05/19 07:48:07;;;;;;;7.38;3.05;;;24.80;64.30;;;;;;9188292;19;20021;-74
2022/05/19 07:51:20;;;;;;;8.43;3.80;;;24.90;64.20;;;;;;9186195;19;20340;-72
2022/05/19 07:54:34;;;;;;;6.10;3.83;;;24.90;64.00;;;;;;9186219;19;20018;-74
2022/05/19 07:57:43;;;;;;;9.40;3.22;;;25.00;63.90;;;;;;9186330;19;20026;-71
2022/05/19 08:00:51;;;;;;;12.07;3.40;;;25.00;63.70;;;;;;9183482;19;20018;-71
2022/05/19 08:03:56;;;;;;;6.00;3.22;;;25.00;63.70;;;;;;9186400;19;20049;-71
2022/05/19 08:07:01;;;;;;;8.15;3.58;;;25.00;63.70;;;;;;9186544;19;20054;-73
2022/05/19 08:16:46;;;;;;;14.50;3.83;;;25.00;63.40;;;;;;9185072;19;20014;-71
2022/05/19 08:19:51;;;;;;;6.80;4.43;;;25.00;63.40;;;;;;9182859;19;20049;-70
2022/05/19 08:22:57;;;;;;;9.80;4.10;;;25.00;63.30;;;;;;9181858;19;20026;-70
2022/05/19 08:26:02;;;;;;;7.63;4.65;;;25.00;63.20;;;;;;9183991;19;20029;-69
2022/05/19 08:29:14;;;;;;;11.40;4.97;;;25.00;63.20;;;;;;9180831;19;20019;-69
2022/05/19 08:32:19;;;;;;;7.50;4.22;;;25.10;63.00;;;;;;9179388;19;20007;-69
2022/05/19 08:35:24;;;;;;;8.18;3.75;;;25.10;62.90;;;;;;9179713;19;20553;-69
2022/05/19 08:38:30;;;;;;;12.32;4.93;;;25.20;62.90;;;;;;9184719;19;20045;-69
2022/05/19 08:41:39;;;;;;;8.18;4.53;;;25.20;62.80;;;;;;9175884;19;20032;-70
2022/05/19 08:44:52;;;;;;;10.48;3.72;;;25.30;62.60;;;;;;9178062;19;20022;-71
2022/05/19 08:48:06;;;;;;;7.17;3.83;;;25.30;62.60;;;;;;9176024;19;20357;-72
2022/05/19 08:51:12;;;;;;;7.07;3.50;;;25.40;62.50;;;;;;9179596;19;20515;-71
2022/05/19 08:54:24;;;;;;;8.55;4.65;;;25.40;62.50;;;;;;9179362;19;20074;-70
2022/05/19 08:57:36;;;;;;;6.50;4.17;;;25.50;62.30;;;;;;9180571;19;20049;-71
2022/05/19 09:00:59;;;;;;;6.38;4.07;;;25.50;62.20;;;;;;9186026;19;20045;-83
2022/05/19 09:04:26;;;;;;;5.72;3.60;;;25.60;62.10;;;;;;9178365;19;20056;-79
2022/05/19 09:11:14;;;;;;;6.68;3.88;;;25.70;62.10;;;;;;9185327;19;20022;-79
2022/05/19 09:14:25;;;;;;;10.13;4.20;;;25.70;62.00;;;;;;9187490;19;20053;-79
2022/05/19 09:17:38;;;;;;;11.63;4.03;;;25.80;61.90;;;;;;9185323;19;20025;-81
2022/05/19 09:20:51;;;;;;;8.88;4.90;;;25.80;61.80;;;;;;9184137;19;20148;-83
2022/05/19 09:23:56;;;;;;;7.15;4.32;;;25.90;61.80;;;;;;9187347;19;20010;-78
2022/05/19 09:27:02;;;;;;;11.50;5.13;;;26.00;61.70;;;;;;9186178;19;20030;-80
2022/05/19 09:30:15;;;;;;;6.88;4.50;;;26.00;61.60;;;;;;9187191;19;20027;-79
2022/05/19 09:33:32;;;;;;;7.17;4.50;;;26.10;61.70;;;;;;9185905;19;20048;-80
2022/05/19 09:37:00;;;;;;;8.75;4.80;;;26.10;62.30;;;;;;9189411;19;20089;-79
2022/05/19 09:40:22;;;;;;;5.32;3.80;;;26.20;61.80;;;;;;9187174;19;20077;-81
2022/05/19 09:43:58;;;;;;;11.88;3.65;;;26.30;61.70;;;;;;9179121;19;20370;-79
2022/05/19 09:47:20;;;;;;;8.70;3.97;;;26.50;61.70;;;;;;9185841;19;20026;-79
2022/05/19 09:50:31;;;;;;;4.97;3.92;;;26.70;61.40;;;;;;9180807;19;20504;-78
2022/05/19 09:53:42;;;;;;;14.05;4.57;;;26.90;61.10;;;;;;9184160;19;20019;-78
2022/05/19 09:56:50;;;;;;;11.57;4.35;;;27.10;60.90;;;;;;9183620;19;20011;-77
2022/05/19 10:00:02;;;;;;;6.45;3.80;;;27.30;60.90;;;;;;9182212;19;20033;-79
2022/05/19 10:03:30;;;;;;;6.80;3.60;;;27.60;60.60;;;;;;9182111;19;20484;-80
2022/05/19 10:06:52;;;;;;;8.52;3.70;;;27.80;60.10;;;;;;9179012;19;20026;-71
2022/05/19 10:10:01;;;;;;;7.60;4.03;;;28.00;59.90;;;;;;9179759;19;20018;-73
2022/05/19 10:13:17;;;;;;;10.13;4.60;;;28.20;59.90;;;;;;9179492;19;20748;-73
2022/05/19 10:16:30;;;;;;;7.07;4.30;;;28.30;59.50;;;;;;9180606;19;20028;-72
2022/05/19 10:19:50;;;;;;;7.97;3.70;;;28.50;59.20;;;;;;9176178;19;20412;-70
2022/05/19 10:23:19;;;;;;;7.45;3.95;;;28.70;59.00;;;;;;9173545;19;20132;-72
2022/05/19 10:26:40;;;;;;;6.53;3.28;;;28.80;58.60;;;;;;9177715;19;20082;-76
2022/05/19 10:33:22;;;;;;;7.07;3.65;;;29.10;58.50;;;;;;9182046;19;20022;-70
2022/05/19 10:36:42;;;;;;;5.97;4.22;;;29.30;58.40;;;;;;9176125;19;20019;-73
2022/05/19 10:40:07;;;;;;;9.52;3.97;;;29.40;57.80;;;;;;9174024;19;20365;-70
2022/05/19 10:43:27;;;;;;;7.03;3.10;;;29.60;57.30;;;;;;9172372;19;20786;-71
2022/05/19 10:46:40;;;;;;;6.65;3.45;;;29.70;57.20;;;;;;9172154;19;20401;-71
2022/05/19 10:50:11;;;;;;;8.57;3.83;;;29.80;57.00;;;;;;9174281;19;20073;-71
2022/05/19 10:53:48;;;;;;;4.82;2.72;;;29.90;56.70;;;;;;9174511;19;20696;-70
2022/05/19 10:57:22;;;;;;;12.00;3.08;;;30.00;56.50;;;;;;9170216;19;20014;-73
2022/05/19 11:00:42;;;;;;;5.05;3.08;;;30.20;56.30;;;;;;9178412;19;20015;-72
2022/05/19 11:04:26;;;;;;;6.72;2.65;;;30.20;56.00;;;;;;9174884;19;20014;-72
2022/05/19 11:07:34;;;;;;;;;;;30.40;56.00;;;;;;9180013;19;20370;-70
2022/05/19 11:10:46;;;;;;;10.73;3.30;;;30.40;56.70;;;;;;9178539;19;19930;-70
2022/05/19 11:14:06;;;;;;;9.52;3.20;;;30.50;56.10;;;;;;9172727;19;20455;-71
2022/05/19 11:17:18;;;;;;;5.38;2.65;;;30.50;55.50;;;;;;9174962;19;20457;-69
2022/05/19 11:20:30;;;;;;;9.88;2.72;;;30.50;55.40;;;;;;9173125;19;20018;-70
2022/05/19 11:23:46;;;;;;;10.27;3.33;;;30.50;55.20;;;;;;9177179;19;20014;-70
2022/05/19 11:26:56;;;;;;;3.95;2.47;;;30.60;54.90;;;;;;9179465;19;20019;-71
2022/05/19 11:30:11;;;;;;;12.90;2.42;;;30.60;54.90;;;;;;9177624;19;20019;-69
2022/05/19 11:33:24;;;;;;;6.05;2.88;;;30.60;54.60;;;;;;9178425;19;20021;-69
2022/05/19 11:36:38;;;;;;;3.83;2.97;;;30.50;54.60;;;;;;9177435;19;20357;-71
2022/05/19 11:39:52;;;;;;;3.22;2.55;;;30.60;54.60;;;;;;9179022;19;20018;-70
2022/05/19 11:43:02;;;;;;;7.00;3.00;;;30.60;54.60;;;;;;9171030;19;20034;-68
2022/05/19 11:46:13;;;;;;;7.68;2.83;;;30.70;54.50;;;;;;9178840;19;20011;-69
2022/05/19 11:56:10;;;;;;;8.75;3.05;;;30.80;53.90;;;;;;9177895;19;20023;-71
2022/05/19 11:59:15;;;;;;;5.68;2.80;;;30.80;53.90;;;;;;9176934;19;20010;-71
2022/05/19 12:02:31;;;;;;;6.30;2.58;;;30.80;53.80;;;;;;9174640;19;20367;-73
2022/05/19 12:05:43;;;;;;;6.65;2.80;;;30.90;53.40;;;;;;9173725;19;20015;-70
2022/05/19 12:09:00;;;;;;;5.20;3.63;;;31.00;53.50;;;;;;9185156;19;20025;-74
2022/05/19 12:12:08;;;;;;;3.80;2.80;;;31.00;53.20;;;;;;9185812;19;20024;-73
2022/05/19 12:15:21;;;;;;;5.93;2.20;;;31.00;53.00;;;;;;9185457;19;20011;-70
2022/05/19 12:18:47;;;;;;;6.07;2.47;;;30.90;52.70;;;;;;9187249;19;20020;-70
2022/05/19 12:21:57;;;;;;;6.35;2.05;;;30.90;52.80;;;;;;9182824;19;20018;-71
2022/05/19 12:25:17;;;;;;;6.43;2.53;;;30.90;52.50;;;;;;9181137;19;20026;-71
2022/05/19 12:28:49;;;;;;;5.63;2.35;;;30.90;52.20;;;;;;9182176;19;20468;-69
2022/05/19 12:31:59;;;;;;;6.57;1.88;;;30.80;52.00;;;;;;9171894;19;20689;-69
2022/05/19 12:35:12;;;;;;;10.20;2.95;;;30.70;52.20;;;;;;9176064;19;20049;-69
2022/05/19 12:38:31;;;;;;;7.40;2.20;;;30.60;52.10;;;;;;9173927;19;20583;-71
2022/05/19 12:41:39;;;;;;;4.20;2.20;;;30.60;52.00;;;;;;9174720;19;20019;-70
2022/05/19 12:44:50;;;;;;;7.45;2.50;;;30.50;52.20;;;;;;9173743;19;20049;-70
2022/05/19 12:47:59;;;;;;;7.35;2.58;;;30.40;52.20;;;;;;9173785;19;20089;-72
2022/05/19 12:51:19;;;;;;;49.28;6.97;;;30.30;52.10;;;;;;9178838;19;20019;-72
2022/05/19 12:54:26;;;;;;;39.72;8.13;;;30.20;52.40;;;;;;9173806;19;20109;-71
2022/05/19 12:57:32;;;;;;;17.17;4.68;;;30.10;53.60;;;;;;9175767;19;20673;-72
2022/05/19 13:00:39;;;;;;;12.70;3.83;;;30.00;54.20;;;;;;9176787;19;20701;-72
2022/05/19 13:03:50;;;;;;;12.77;3.65;;;29.80;54.70;;;;;;9173670;19;20022;-73
2022/05/19 13:07:02;;;;;;;7.93;3.78;;;29.70;55.30;;;;;;9172318;19;20014;-72
2022/05/19 13:10:16;;;;;;;8.35;3.88;;;29.50;55.90;;;;;;9171724;19;20014;-73
2022/05/19 13:13:26;;;;;;;;;;;29.30;56.10;;;;;;9175647;19;20029;-73
2022/05/19 13:16:33;;;;;;;14.77;4.95;;;29.10;56.00;;;;;;9176586;19;19918;-73
2022/05/19 13:19:39;;;;;;;10.30;5.20;;;28.90;56.40;;;;;;9173767;19;20476;-74
2022/05/19 13:22:59;;;;;;;12.32;7.10;;;28.70;56.70;;;;;;9174344;19;20019;-73
2022/05/19 13:26:14;;;;;;;9.75;5.47;;;28.50;57.80;;;;;;9178027;19;20753;-73
2022/05/19 13:32:42;;;;;;;15.15;6.72;;;28.00;57.50;;;;;;9171174;19;20018;-72
2022/05/19 13:35:47;;;;;;;17.90;5.68;;;27.70;57.90;;;;;;9171352;19;20022;-71
2022/05/19 13:39:12;;;;;;;17.80;5.10;;;27.40;58.20;;;;;;9172499;19;20056;-69
2022/05/19 13:42:18;;;;;;;10.90;2.83;;;27.00;58.60;;;;;;9167463;19;20039;-69
2022/05/19 13:45:31;;;;;;;5.93;1.80;;;26.40;58.60;;;;;;9172348;19;20074;-71
2022/05/19 13:48:44;;;;;;;5.07;1.90;;;25.90;59.00;;;;;;9170327;19;20511;-74
2022/05/19 13:51:51;;;;;;;7.60;1.92;;;25.50;59.60;;;;;;9174440;19;20483;-73
2022/05/19 13:54:59;;;;;;;11.15;2.13;;;25.10;60.00;;;;;;9170554;19;20029;-73
2022/05/19 13:58:18;;;;;;;6.78;2.28;;;24.80;60.70;;;;;;9174879;19;20623;-72
2022/05/19 14:01:32;;;;;;;4.80;2.08;;;24.50;61.10;;;;;;9170024;19;20018;-72
2022/05/19 14:04:41;;;;;;;10.30;2.15;;;24.20;61.70;;;;;;9167929;19;20557;-75
2022/05/19 14:07:46;;;;;;;5.88;2.00;;;24.00;61.90;;;;;;9174475;19;20018;-75
2022/05/19 14:10:58;;;;;;;5.32;2.38;;;23.80;62.00;;;;;;9175259;19;20014;-72
2022/05/19 14:14:04;;;;;;;4.20;2.40;;;23.50;62.40;;;;;;9169299;19;20022;-75
2022/05/19 14:17:32;;;;;;;3.03;2.05;;;23.30;62.80;;;;;;9171952;19;20081;-73
2022/05/19 14:20:43;;;;;;;6.72;2.60;;;23.00;63.10;;;;;;9170494;19;20029;-74
2022/05/19 14:23:52;;;;;;;7.32;2.92;;;22.80;63.60;;;;;;9167723;19;21263;-73
2022/05/19 14:27:01;;;;;;;5.88;3.40;;;22.60;64.00;;;;;;9170437;19;20017;-73
2022/05/19 14:30:10;;;;;;;6.00;3.05;;;22.40;64.30;;;;;;9169649;19;21348;-73
2022/05/19 14:33:21;;;;;;;4.40;2.63;;;22.30;64.60;;;;;;9169681;19;20025;-73
2022/05/19 14:36:29;;;;;;;5.63;3.15;;;22.10;65.10;;;;;;9171640;19;20022;-74
2022/05/19 14:39:39;;;;;;;8.27;3.40;;;22.00;65.40;;;;;;9172206;19;20011;-75
2022/05/19 14:43:04;;;;;;;6.72;3.50;;;21.90;65.80;;;;;;9165182;19;20019;-73
2022/05/19 14:46:14;;;;;;;5.10;3.30;;;21.90;66.40;;;;;;9171330;19;20010;-74
2022/05/19 14:49:21;;;;;;;5.65;3.20;;;21.80;66.40;;;;;;9171034;19;20022;-73
2022/05/19 14:52:37;;;;;;;7.53;3.17;;;21.70;66.50;;;;;;9169604;19;20018;-72
2022/05/19 14:55:44;;;;;;;6.05;2.78;;;21.70;67.20;;;;;;9173218;19;20022;-75
2022/05/19 14:58:57;;;;;;;7.25;2.75;;;21.70;67.00;;;;;;9173734;19;20014;-75
2022/05/19 15:02:02;;;;;;;6.78;3.65;;;21.70;67.60;;;;;;9169325;19;20453;-75
2022/05/19 15:05:08;;;;;;;5.55;3.30;;;21.70;67.40;;;;;;9168474;19;20046;-75
2022/05/19 15:08:16;;;;;;;9.82;3.42;;;21.60;67.70;;;;;;9168178;19;20029;-75
2022/05/19 15:11:22;;;;;;;5.38;2.83;;;21.70;68.00;;;;;;9169309;19;20014;-75
2022/05/19 15:14:30;;;;;;;6.07;2.97;;;21.70;68.10;;;;;;9168703;19;20026;-76
2022/05/19 15:17:35;;;;;;;4.28;2.80;;;21.70;68.40;;;;;;9173000;19;20014;-75
2022/05/19 15:20:43;;;;;;;6.05;2.72;;;21.70;68.50;;;;;;9172092;19;20520;-75
2022/05/19 15:23:48;;;;;;;8.98;2.90;;;21.70;68.60;;;;;;9170635;19;20018;-75
2022/05/19 15:26:58;;;;;;;4.90;2.70;;;21.70;68.60;;;;;;9174209;19;20014;-76
2022/05/19 15:30:08;;;;;;;5.45;2.70;;;21.80;68.80;;;;;;9170645;19;20029;-76
2022/05/19 15:33:13;;;;;;;4.38;2.80;;;21.80;69.00;;;;;;9173512;19;20021;-75
2022/05/19 15:36:18;;;;;;;3.83;2.42;;;21.80;68.80;;;;;;9170310;19;20029;-75
2022/05/19 15:39:24;;;;;;;4.30;2.65;;;21.80;68.80;;;;;;9168958;19;20029;-74
2022/05/19 15:42:29;;;;;;;4.53;2.95;;;21.90;69.00;;;;;;9169998;19;20017;-74
2022/05/19 15:45:38;;;;;;;7.72;2.97;;;21.90;69.10;;;;;;9181189;19;20759;-75
2022/05/19 15:48:44;;;;;;;4.32;2.90;;;21.90;69.30;;;;;;9180506;19;20021;-75
2022/05/19 15:51:50;;;;;;;6.13;3.83;;;22.00;69.40;;;;;;9177466;19;20991;-75
2022/05/19 15:54:56;;;;;;;9.00;3.33;;;22.00;69.40;;;;;;9178920;19;20057;-73
2022/05/19 15:58:01;;;;;;;6.93;3.10;;;22.00;69.60;;;;;;9181534;19;20026;-74
2022/05/19 16:01:09;;;;;;;6.95;3.17;;;22.10;69.60;;;;;;9182849;19;20022;-74
2022/05/19 16:04:14;;;;;;;4.47;2.85;;;22.10;69.70;;;;;;9176850;19;20007;-74
2022/05/19 16:07:24;;;;;;;6.05;3.30;;;22.10;69.70;;;;;;9178058;19;20109;-75
2022/05/19 16:10:35;;;;;;;4.53;2.90;;;22.10;69.80;;;;;;9177641;19;20376;-74
2022/05/19 16:13:44;;;;;;;6.32;2.90;;;22.20;70.00;;;;;;9176609;19;20014;-74
2022/05/19 16:16:55;;;;;;;3.75;2.80;;;22.20;70.00;;;;;;9176450;19;20029;-73
2022/05/19 16:20:13;;;;;;;5.25;2.80;;;22.20;70.20;;;;;;9178214;19;20943;-75
2022/05/19 16:23:19;;;;;;;3.63;2.80;;;22.20;70.30;;;;;;9177302;19;20047;-74
2022/05/19 16:26:25;;;;;;;4.72;3.70;;;22.20;70.40;;;;;;9177245;19;20014;-73
2022/05/19 16:29:31;;;;;;;4.32;3.42;;;22.30;71.20;;;;;;9179985;19;20404;-74
2022/05/19 16:32:38;;;;;;;4.43;2.83;;;22.30;70.60;;;;;;9175944;19;20018;-73
2022/05/19 16:35:44;;;;;;;3.20;2.72;;;22.30;70.90;;;;;;9177524;19;20770;-74
2022/05/19 16:38:49;;;;;;;3.70;3.00;;;22.30;70.70;;;;;;9176930;19;20041;-74
2022/05/19 16:41:54;;;;;;;4.30;2.90;;;22.40;70.90;;;;;;9173657;19;20472;-73
2022/05/19 16:44:59;;;;;;;3.67;2.75;;;22.40;71.00;;;;;;9175954;19;20014;-74